createdAt,value
2019-04-26T01:00:40.079Z,100322.00
2019-04-26T01:03:35.543Z,100320.00
2019-04-26T03:45:38.956Z,100207.00
2019-04-26T03:51:50.581Z,100221.00
2019-04-26T04:03:58.547Z,100220.00
2019-04-26T04:12:32.795Z,100221.00
2019-04-26T04:18:08.470Z,100222.00
2019-04-26T04:21:15.755Z,100230.00
2019-04-26T04:24:11.884Z,100216.00
2019-04-26T04:33:23.427Z,100213.00
2019-04-26T04:44:49.949Z,100216.00
2019-04-26T04:47:46.041Z,100223.00
2019-04-26T04:50:36.030Z,100223.00
2019-04-26T04:53:19.945Z,100219.00
2019-04-26T04:56:20.137Z,100213.00
2019-04-26T04:59:16.120Z,100213.00
2019-04-26T05:02:18.355Z,100216.00
2019-04-26T05:30:01.083Z,100247.00
2019-04-26T05:55:26.760Z,100223.00
2019-04-26T06:01:35.989Z,100215.00
2019-04-26T06:10:42.383Z,100207.00
2019-04-26T06:27:09.300Z,100226.00
2019-04-26T06:35:39.497Z,100220.00
2019-04-26T06:41:40.655Z,100205.00
2019-04-26T06:44:27.451Z,100203.00
2019-04-26T07:02:38.455Z,100216.00
2019-04-26T07:05:30.687Z,100210.00
2019-04-26T07:42:58.196Z,100219.00
2019-04-26T07:46:01.342Z,100233.00
2019-04-26T07:48:52.371Z,100226.00
2019-04-26T07:52:19.128Z,100232.00
2019-04-26T07:55:15.410Z,100237.00
2019-04-26T07:58:40.467Z,100239.00
2019-04-26T08:01:52.233Z,100242.00
2019-04-26T08:04:36.346Z,100239.00
2019-04-26T08:07:25.953Z,100240.00
2019-04-26T08:10:18.697Z,100237.00
2019-04-26T08:13:15.221Z,100246.00
2019-04-26T08:16:01.377Z,100235.00
2019-04-26T08:18:43.865Z,100216.00
2019-04-26T08:21:31.700Z,100224.00
2019-04-26T08:24:14.939Z,100235.00
2019-04-26T08:26:49.942Z,100223.00
2019-04-26T08:29:24.633Z,100218.00
2019-04-26T08:31:58.105Z,100219.00
2019-04-26T08:34:33.988Z,100206.00
2019-04-26T08:37:14.778Z,100223.00
2019-04-26T08:39:51.927Z,100227.00
2019-04-26T08:42:25.143Z,100234.00
2019-04-26T08:45:00.132Z,100237.00
2019-04-26T08:48:02.666Z,100215.00
2019-04-26T08:50:35.477Z,100222.00
2019-04-26T08:53:07.871Z,100224.00
2019-04-26T08:55:42.054Z,100215.00
2019-04-26T08:58:17.398Z,100213.00
2019-04-26T09:00:53.791Z,100212.00
2019-04-26T09:03:35.364Z,100216.00
2019-04-26T09:06:09.687Z,100207.00
2019-04-26T09:08:43.552Z,100218.00
2019-04-26T09:11:26.136Z,100233.00
2019-04-26T09:13:54.031Z,100235.00
2019-04-26T09:16:24.611Z,100227.00
2019-04-26T09:18:59.381Z,100238.00
2019-04-26T09:21:36.403Z,100227.00
2019-04-26T09:24:09.246Z,100234.00
2019-04-26T09:26:50.263Z,100229.00
2019-04-26T09:29:35.854Z,100223.00
2019-04-26T09:32:24.101Z,100220.00
2019-04-26T09:35:20.206Z,100229.00
2019-04-26T09:37:52.465Z,100225.00
2019-04-26T09:40:22.979Z,100232.00
2019-04-26T09:43:14.406Z,100233.00
2019-04-26T09:45:59.517Z,100239.00
2019-04-26T09:48:36.761Z,100240.00
2019-04-26T09:51:08.759Z,100241.00
2019-04-26T09:53:42.906Z,100244.00
2019-04-26T09:56:11.531Z,100234.00
2019-04-26T09:58:41.999Z,100219.00
2019-04-26T10:01:13.296Z,100233.00
2019-04-26T10:03:43.723Z,100234.00
2019-04-26T10:06:14.111Z,100238.00
2019-04-26T10:08:47.084Z,100237.00
2019-04-26T10:11:18.471Z,100224.00
2019-04-26T10:13:50.551Z,100230.00
2019-04-26T10:16:22.627Z,100240.00
2019-04-26T10:18:58.344Z,100239.00
2019-04-26T10:21:46.195Z,100233.00
2019-04-26T10:24:16.662Z,100217.00
2019-04-26T10:26:47.503Z,100215.00
2019-04-26T10:29:17.900Z,100213.00
2019-04-26T10:31:51.873Z,100216.00
2019-04-26T10:34:20.908Z,100216.00
2019-04-26T10:36:51.744Z,100214.00
2019-04-26T10:39:22.142Z,100215.00
2019-04-26T10:41:52.500Z,100225.00
2019-04-26T10:44:24.014Z,100227.00
2019-04-26T10:46:55.641Z,100228.00
2019-04-26T10:49:47.509Z,100216.00
2019-04-26T10:52:37.859Z,100219.00
2019-04-26T10:55:16.017Z,100224.00
2019-04-26T10:57:50.418Z,100228.00
2019-04-26T11:00:22.955Z,100233.00
2019-04-26T11:02:53.391Z,100217.00
2019-04-26T11:05:24.319Z,100217.00
2019-04-26T11:07:54.695Z,100217.00
2019-04-26T11:10:25.077Z,100220.00
2019-04-26T11:12:55.450Z,100213.00
2019-04-26T11:15:29.040Z,100211.00
2019-04-26T11:17:58.039Z,100217.00
2019-04-26T11:20:28.515Z,100216.00
2019-04-26T11:22:58.895Z,100218.00
2019-04-26T11:25:29.590Z,100219.00
2019-04-26T11:28:00.150Z,100223.00
2019-04-26T11:30:30.547Z,100226.00
2019-04-26T11:33:00.906Z,100222.00
2019-04-26T11:35:33.171Z,100223.00
2019-04-26T11:38:03.447Z,100225.00
2019-04-26T11:40:33.833Z,100226.00
2019-04-26T11:43:04.371Z,100224.00
2019-04-26T11:45:34.869Z,100219.00
2019-04-26T11:48:05.356Z,100225.00
2019-04-26T11:50:35.809Z,100225.00
2019-04-26T11:53:10.081Z,100222.00
2019-04-26T11:55:38.486Z,100213.00
2019-04-26T11:58:08.873Z,100222.00
2019-04-26T12:00:40.946Z,100210.00
2019-04-26T12:03:11.379Z,100230.00
2019-04-26T12:05:43.396Z,100232.00
2019-04-26T12:08:22.627Z,100241.00
2019-04-26T12:10:53.074Z,100238.00
2019-04-26T12:13:25.029Z,100231.00
2019-04-26T12:15:55.607Z,100236.00
2019-04-26T12:18:26.266Z,100221.00
2019-04-26T12:20:57.173Z,100250.00
2019-04-26T12:23:29.135Z,100230.00
2019-04-26T12:26:02.870Z,100239.00
2019-04-26T12:28:36.291Z,100243.00
2019-04-26T12:31:14.908Z,100242.00
2019-04-26T12:33:45.205Z,100262.00
2019-04-26T12:36:15.920Z,100258.00
2019-04-26T12:38:46.441Z,100262.00
2019-04-26T12:41:25.198Z,100261.00
2019-04-26T12:43:54.471Z,100260.00
2019-04-26T12:46:50.762Z,100265.00
2019-04-26T12:49:24.219Z,100270.00
2019-04-26T12:51:53.453Z,100265.00
2019-04-26T12:54:23.912Z,100269.00
2019-04-26T12:56:54.339Z,100266.00
2019-04-26T12:59:26.529Z,100256.00
2019-04-26T13:02:05.521Z,100263.00
2019-04-26T13:04:35.933Z,100261.00
2019-04-26T13:07:06.970Z,100259.00
2019-04-26T13:09:36.514Z,100255.00
2019-04-26T13:12:14.381Z,100264.00
2019-04-26T13:14:46.587Z,100260.00
2019-04-26T13:17:24.510Z,100255.00
2019-04-26T13:19:55.518Z,100250.00
2019-04-26T13:22:26.125Z,100238.00
2019-04-26T13:24:56.653Z,100234.00
2019-04-26T13:27:26.987Z,100234.00
2019-04-26T13:30:02.348Z,100235.00
2019-04-26T13:32:30.527Z,100229.00
2019-04-26T13:35:01.145Z,100233.00
2019-04-26T13:37:32.130Z,100234.00
2019-04-26T13:40:02.720Z,100242.00
2019-04-26T13:42:34.362Z,100235.00
2019-04-26T13:45:08.099Z,100240.00
2019-04-26T13:48:03.135Z,100240.00
2019-04-26T13:50:38.032Z,100232.00
2019-04-26T13:53:08.386Z,100237.00
2019-04-26T13:55:38.900Z,100227.00
2019-04-26T13:58:09.286Z,100232.00
2019-04-26T14:00:43.429Z,100226.00
2019-04-26T14:03:11.735Z,100236.00
2019-04-26T14:05:42.242Z,100229.00
2019-04-26T14:08:12.752Z,100235.00
2019-04-26T14:10:45.585Z,100233.00
2019-04-26T14:13:15.441Z,100237.00
2019-04-26T14:15:48.689Z,100235.00
2019-04-26T14:18:17.993Z,100234.00
2019-04-26T14:20:48.375Z,100232.00
2019-04-26T14:23:20.383Z,100236.00
2019-04-26T14:26:05.340Z,100236.00
2019-04-26T14:28:33.665Z,100237.00
2019-04-26T14:31:04.708Z,100236.00
2019-04-26T14:33:35.085Z,100233.00
2019-04-26T14:36:18.149Z,100235.00
2019-04-26T14:38:43.583Z,100235.00
2019-04-26T14:41:22.008Z,100228.00
2019-04-26T14:43:46.233Z,100239.00
2019-04-26T14:46:16.675Z,100236.00
2019-04-26T14:49:00.599Z,100236.00
2019-04-26T14:51:19.159Z,100239.00
2019-04-26T14:53:50.494Z,100250.00
2019-04-26T14:56:24.768Z,100249.00
2019-04-26T14:58:54.014Z,100243.00
2019-04-26T15:01:28.472Z,100233.00
2019-04-26T15:03:59.746Z,100243.00
2019-04-26T15:06:32.218Z,100241.00
2019-04-26T15:09:02.994Z,100237.00
2019-04-26T15:11:36.164Z,100233.00
2019-04-26T15:14:07.303Z,100239.00
2019-04-26T15:16:41.456Z,100240.00
2019-04-26T15:19:11.002Z,100245.00
2019-04-26T15:21:42.283Z,100241.00
2019-04-26T15:24:12.911Z,100241.00
2019-04-26T15:26:43.338Z,100237.00
2019-04-26T15:29:13.695Z,100249.00
2019-04-26T15:31:44.147Z,100250.00
2019-04-26T15:34:14.565Z,100258.00
2019-04-26T15:36:47.929Z,100258.00
2019-04-26T15:39:23.209Z,100251.00
2019-04-26T15:41:55.395Z,100253.00
2019-04-26T15:44:28.309Z,100250.00
2019-04-26T15:47:03.334Z,100247.00
2019-04-26T15:49:37.155Z,100246.00
2019-04-26T15:52:07.522Z,100257.00
2019-04-26T15:54:37.924Z,100254.00
2019-04-26T15:57:08.403Z,100264.00
2019-04-26T15:59:38.774Z,100264.00
2019-04-26T16:02:09.236Z,100261.00
2019-04-26T16:04:39.633Z,100277.00
2019-04-26T16:07:09.995Z,100273.00
2019-04-26T16:09:42.985Z,100279.00
2019-04-26T16:12:13.567Z,100282.00
2019-04-26T16:14:43.928Z,100285.00
2019-04-26T16:17:14.306Z,100293.00
2019-04-26T16:19:44.799Z,100296.00
2019-04-26T16:22:15.273Z,100299.00
2019-04-26T16:24:45.714Z,100302.00
2019-04-26T16:27:16.098Z,100309.00
2019-04-26T16:29:50.817Z,100295.00
2019-04-26T16:32:27.671Z,100301.00
2019-04-26T16:35:02.915Z,100306.00
2019-04-26T16:37:35.196Z,100305.00
2019-04-26T16:40:12.363Z,100297.00
2019-04-26T16:42:40.650Z,100291.00
2019-04-26T16:45:12.407Z,100292.00
2019-04-26T17:04:10.900Z,100323.00
2019-04-26T17:06:44.437Z,100337.00
2019-04-26T17:09:09.843Z,100337.00
2019-04-26T17:11:41.420Z,100341.00
2019-04-26T17:14:13.226Z,100341.00
2019-04-26T17:16:44.452Z,100350.00
2019-04-26T17:19:14.988Z,100348.00
2019-04-26T17:21:48.088Z,100340.00
2019-04-26T17:24:20.099Z,100345.00
2019-04-26T17:26:58.118Z,100356.00
2019-04-26T17:29:28.507Z,100379.00
2019-04-26T17:31:58.886Z,100389.00
2019-04-26T17:34:30.299Z,100398.00
2019-04-26T17:37:02.379Z,100386.00
2019-04-26T17:39:32.891Z,100385.00
2019-04-26T17:42:03.260Z,100379.00
2019-04-26T17:44:34.186Z,100374.00
2019-04-26T17:47:04.602Z,100383.00
2019-04-26T17:49:38.087Z,100377.00
2019-04-26T17:52:07.323Z,100375.00
2019-04-26T17:54:46.674Z,100366.00
2019-04-26T17:57:14.358Z,100368.00
2019-04-26T17:59:47.699Z,100384.00
2019-04-26T18:02:31.564Z,100379.00
2019-04-26T18:04:58.105Z,100374.00
2019-04-26T18:07:39.292Z,100370.00
2019-04-26T18:10:04.382Z,100366.00
2019-04-26T18:12:32.713Z,100376.00
2019-04-26T18:15:09.536Z,100380.00
2019-04-26T18:17:40.493Z,100373.00
2019-04-26T18:20:23.449Z,100377.00
2019-04-26T18:22:55.404Z,100399.00
2019-04-26T18:25:25.607Z,100404.00
2019-04-26T18:27:56.061Z,100415.00
2019-04-26T18:30:27.427Z,100412.00
2019-04-26T18:32:57.813Z,100418.00
2019-04-26T18:35:29.142Z,100429.00
2019-04-26T18:37:59.510Z,100426.00
2019-04-26T18:40:35.461Z,100427.00
2019-04-26T18:43:03.434Z,100428.00
2019-04-26T18:45:35.802Z,100421.00
2019-04-26T18:48:06.267Z,100427.00
2019-04-26T18:50:36.705Z,100449.00
2019-04-26T18:53:15.741Z,100449.00
2019-04-26T18:55:47.770Z,100456.00
2019-04-26T18:58:18.135Z,100461.00
2019-04-26T19:00:48.528Z,100465.00
2019-04-26T19:03:18.964Z,100460.00
2019-04-26T19:05:49.358Z,100468.00
2019-04-26T19:08:20.835Z,100461.00
2019-04-26T19:10:59.202Z,100488.00
2019-04-26T19:13:25.683Z,100486.00
2019-04-26T19:15:57.725Z,100484.00
2019-04-26T19:18:33.258Z,100495.00
2019-04-26T19:21:06.509Z,100490.00
2019-04-26T19:23:36.874Z,100491.00
2019-04-26T19:26:09.362Z,100499.00
2019-04-26T19:28:39.915Z,100504.00
2019-04-26T19:31:12.878Z,100498.00
2019-04-26T19:33:43.250Z,100497.00
2019-04-26T19:36:17.696Z,100502.00
2019-04-26T19:38:49.901Z,100504.00
2019-04-26T19:41:21.532Z,100498.00
2019-04-26T19:43:52.151Z,100506.00
2019-04-26T19:46:33.088Z,100510.00
2019-04-26T19:49:14.473Z,100517.00
2019-04-26T19:52:03.893Z,100523.00
2019-04-26T19:54:38.460Z,100535.00
2019-04-26T19:57:09.768Z,100537.00
2019-04-26T19:59:41.984Z,100543.00
2019-04-26T20:02:12.870Z,100544.00
2019-04-26T20:04:43.693Z,100546.00
2019-04-26T20:07:14.252Z,100557.00
2019-04-26T20:09:46.332Z,100546.00
2019-04-26T20:12:17.523Z,100553.00
2019-04-26T20:14:56.749Z,100554.00
2019-04-26T20:17:23.983Z,100554.00
2019-04-26T20:19:55.368Z,100554.00
2019-04-26T20:22:29.995Z,100539.00
2019-04-26T20:25:18.452Z,100540.00
2019-04-26T20:27:49.465Z,100553.00
2019-04-26T20:30:38.261Z,100563.00
2019-04-26T20:33:09.471Z,100569.00
2019-04-26T20:35:42.257Z,100559.00
2019-04-26T20:38:13.391Z,100567.00
2019-04-26T20:40:47.551Z,100562.00
2019-04-26T20:43:24.454Z,100560.00
2019-04-26T20:46:07.939Z,100573.00
2019-04-26T20:48:21.600Z,100579.00
2019-04-26T20:50:53.023Z,100570.00
2019-04-26T20:53:24.054Z,100568.00
2019-04-26T20:55:54.417Z,100560.00
2019-04-26T20:58:24.806Z,100560.00
2019-04-26T21:00:55.179Z,100562.00
2019-04-26T21:03:27.829Z,100572.00
2019-04-26T21:05:59.025Z,100573.00
2019-04-26T21:08:29.740Z,100563.00
2019-04-26T21:11:01.222Z,100551.00
2019-04-26T21:13:32.489Z,100551.00
2019-04-26T21:16:10.382Z,100561.00
2019-04-26T21:18:40.013Z,100566.00
2019-04-26T21:21:10.428Z,100549.00
2019-04-26T21:23:41.516Z,100536.00
2019-04-26T21:26:16.567Z,100497.00
2019-04-26T21:28:48.671Z,100494.00
2019-04-26T21:31:40.900Z,100505.00
2019-04-26T21:34:15.220Z,100538.00
2019-04-26T21:36:56.352Z,100535.00
2019-04-26T21:39:28.396Z,100536.00
2019-04-26T21:42:06.401Z,100559.00
2019-04-26T21:44:36.815Z,100576.00
2019-04-26T21:47:07.194Z,100582.00
2019-04-26T21:49:38.123Z,100579.00
2019-04-26T21:52:08.813Z,100576.00
2019-04-26T21:54:39.281Z,100582.00
2019-04-26T21:57:09.720Z,100587.00
2019-04-26T21:59:42.165Z,100579.00
2019-04-26T22:02:14.014Z,100586.00
2019-04-26T22:04:44.452Z,100574.00
2019-04-26T22:07:15.207Z,100583.00
2019-04-26T22:09:52.968Z,100577.00
2019-04-26T22:12:27.364Z,100594.00
2019-04-26T22:15:03.656Z,100577.00
2019-04-26T22:17:40.507Z,100586.00
2019-04-26T22:20:23.425Z,100611.00
2019-04-26T22:23:11.425Z,100619.00
2019-04-26T22:25:41.356Z,100638.00
2019-04-26T22:28:13.087Z,100651.00
2019-04-26T22:30:43.612Z,100656.00
2019-04-26T22:33:14.016Z,100673.00
2019-04-26T22:35:44.410Z,100672.00
2019-04-26T22:38:17.477Z,100669.00
2019-04-26T22:40:48.588Z,100681.00
2019-04-26T22:43:23.753Z,100686.00
2019-04-26T22:46:13.762Z,100661.00
2019-04-26T22:48:45.726Z,100672.00
2019-04-26T22:51:16.132Z,100677.00
2019-04-26T22:53:46.492Z,100680.00
2019-04-26T22:56:17.165Z,100688.00
2019-04-26T22:58:47.537Z,100707.00
2019-04-26T23:01:17.941Z,100719.00
2019-04-26T23:03:48.380Z,100719.00
2019-04-26T23:06:18.847Z,100723.00
2019-04-26T23:08:49.227Z,100720.00
2019-04-26T23:11:19.698Z,100706.00
2019-04-26T23:13:55.743Z,100708.00
2019-04-26T23:16:44.647Z,100702.00
2019-04-26T23:19:20.846Z,100703.00
2019-04-26T23:21:55.918Z,100697.00
2019-04-26T23:24:26.128Z,100696.00
2019-04-26T23:26:57.119Z,100699.00
2019-04-26T23:29:27.496Z,100700.00
2019-04-26T23:31:57.892Z,100704.00
2019-04-26T23:34:28.266Z,100703.00
2019-04-26T23:36:58.668Z,100704.00
2019-04-26T23:39:29.236Z,100709.00
2019-04-26T23:41:59.635Z,100708.00
2019-04-26T23:44:30.041Z,100701.00
2019-04-26T23:47:01.321Z,100699.00
2019-04-26T23:49:33.471Z,100700.00
2019-04-26T23:52:03.865Z,100693.00
2019-04-26T23:54:35.881Z,100692.00
2019-04-26T23:57:06.480Z,100669.00
2019-04-26T23:59:36.872Z,100661.00
